sensor_id;sensor_type;location;lat;lon;timestamp;pressure;altitude;pressure_sealevel;temperature;humidity
60089;BME280;45961;53.574;55.878;2023-06-10T00:00:43;100074.19;;;9.66;75.84
60089;BME280;45961;53.574;55.878;2023-06-10T00:01:44;100070.69;;;9.61;75.79
60089;BME280;45961;53.574;55.878;2023-06-10T00:02:47;100065.53;;;9.64;75.47
60089;BME280;45961;53.574;55.878;2023-06-10T00:03:49;100072.47;;;9.68;75.36
60089;BME280;45961;53.574;55.878;2023-06-10T00:04:50;100062.16;;;9.71;75.09
60089;BME280;45961;53.574;55.878;2023-06-10T00:05:51;100068.09;;;9.61;75.17
60089;BME280;45961;53.574;55.878;2023-06-10T00:06:52;100067.28;;;9.65;75.21
60089;BME280;45961;53.574;55.878;2023-06-10T00:07:54;100057.72;;;9.59;75.43
60089;BME280;45961;53.574;55.878;2023-06-10T00:08:55;100068.81;;;9.48;75.95
60089;BME280;45961;53.574;55.878;2023-06-10T00:09:56;100067.03;;;9.42;76.07
60089;BME280;45961;53.574;55.878;2023-06-10T00:10:57;100061.94;;;9.50;76.17
60089;BME280;45961;53.574;55.878;2023-06-10T00:11:58;100064.56;;;9.54;76.30
60089;BME280;45961;53.574;55.878;2023-06-10T00:13:04;100068.06;;;9.58;75.97
60089;BME280;45961;53.574;55.878;2023-06-10T00:14:05;100058.63;;;9.63;75.46
60089;BME280;45961;53.574;55.878;2023-06-10T00:15:06;100059.44;;;9.59;75.34
60089;BME280;45961;53.574;55.878;2023-06-10T00:16:07;100056.00;;;9.60;75.34
60089;BME280;45961;53.574;55.878;2023-06-10T00:17:08;100072.41;;;9.62;75.30
60089;BME280;45961;53.574;55.878;2023-06-10T00:18:12;100061.19;;;9.60;75.12
60089;BME280;45961;53.574;55.878;2023-06-10T00:19:12;100058.63;;;9.61;75.39
60089;BME280;45961;53.574;55.878;2023-06-10T00:20:16;100057.72;;;9.59;75.41
60089;BME280;45961;53.574;55.878;2023-06-10T00:21:17;100059.50;;;9.62;75.59
60089;BME280;45961;53.574;55.878;2023-06-10T00:22:19;100057.72;;;9.59;75.74
60089;BME280;45961;53.574;55.878;2023-06-10T00:23:22;100062.13;;;9.67;75.24
60089;BME280;45961;53.574;55.878;2023-06-10T00:24:25;100056.94;;;9.68;75.05
60089;BME280;45961;53.574;55.878;2023-06-10T00:25:26;100051.88;;;9.74;74.55
60089;BME280;45961;53.574;55.878;2023-06-10T00:26:27;100057.03;;;9.74;74.50
60089;BME280;45961;53.574;55.878;2023-06-10T00:27:27;100060.47;;;9.75;74.71
60089;BME280;45961;53.574;55.878;2023-06-10T00:28:31;100062.97;;;9.69;74.79
60089;BME280;45961;53.574;55.878;2023-06-10T00:29:32;100063.84;;;9.66;75.03
60089;BME280;45961;53.574;55.878;2023-06-10T00:30:33;100053.59;;;9.75;75.15
60089;BME280;45961;53.574;55.878;2023-06-10T00:31:35;100063.97;;;9.78;75.05
60089;BME280;45961;53.574;55.878;2023-06-10T00:32:36;100062.25;;;9.77;74.78
60089;BME280;45961;53.574;55.878;2023-06-10T00:33:37;100063.09;;;9.78;74.76
60089;BME280;45961;53.574;55.878;2023-06-10T00:34:38;100063.97;;;9.78;74.69
60089;BME280;45961;53.574;55.878;2023-06-10T00:35:38;100063.94;;;9.77;74.94
60089;BME280;45961;53.574;55.878;2023-06-10T00:36:39;100066.50;;;9.74;75.04
60089;BME280;45961;53.574;55.878;2023-06-10T00:37:40;100068.22;;;9.75;75.19
60089;BME280;45961;53.574;55.878;2023-06-10T00:38:41;100070.84;;;9.79;74.99
60089;BME280;45961;53.574;55.878;2023-06-10T00:39:43;100065.72;;;9.82;74.78
60089;BME280;45961;53.574;55.878;2023-06-10T00:40:44;100065.72;;;9.82;74.73
60089;BME280;45961;53.574;55.878;2023-06-10T00:41:45;100071.72;;;9.80;74.61
60089;BME280;45961;53.574;55.878;2023-06-10T00:42:46;100073.53;;;9.87;74.25
60089;BME280;45961;53.574;55.878;2023-06-10T00:43:47;100069.25;;;9.91;74.18
60089;BME280;45961;53.574;55.878;2023-06-10T00:44:49;100075.25;;;9.88;73.91
60089;BME280;45961;53.574;55.878;2023-06-10T00:45:50;100076.19;;;9.93;73.77
60089;BME280;45961;53.574;55.878;2023-06-10T00:46:51;100067.53;;;9.91;73.66
60089;BME280;45961;53.574;55.878;2023-06-10T00:47:55;100068.50;;;10.02;73.34
60089;BME280;45961;53.574;55.878;2023-06-10T00:48:56;100068.47;;;10.01;73.15
60089;BME280;45961;53.574;55.878;2023-06-10T00:49:57;100067.66;;;10.08;72.71
60089;BME280;45961;53.574;55.878;2023-06-10T00:50:58;100065.94;;;10.08;72.69
60089;BME280;45961;53.574;55.878;2023-06-10T00:52:00;100066.81;;;10.07;72.61
60089;BME280;45961;53.574;55.878;2023-06-10T00:53:02;100060.78;;;10.07;72.48
60089;BME280;45961;53.574;55.878;2023-06-10T00:54:04;100070.31;;;10.16;72.25
60089;BME280;45961;53.574;55.878;2023-06-10T00:55:05;100071.25;;;10.24;72.14
60089;BME280;45961;53.574;55.878;2023-06-10T00:56:08;100073.91;;;10.28;72.01
60089;BME280;45961;53.574;55.878;2023-06-10T00:57:09;100067.94;;;10.35;71.87
60089;BME280;45961;53.574;55.878;2023-06-10T00:58:10;100069.69;;;10.38;71.80
60089;BME280;45961;53.574;55.878;2023-06-10T00:59:12;100071.41;;;10.37;71.93
60089;BME280;45961;53.574;55.878;2023-06-10T01:00:14;100074.00;;;10.39;71.83
60089;BME280;45961;53.574;55.878;2023-06-10T01:01:16;100072.31;;;10.47;71.93
60089;BME280;45961;53.574;55.878;2023-06-10T01:02:18;100074.09;;;10.50;71.60
60089;BME280;45961;53.574;55.878;2023-06-10T01:03:19;100073.25;;;10.57;71.46
60089;BME280;45961;53.574;55.878;2023-06-10T01:04:21;100078.50;;;10.68;70.89
60089;BME280;45961;53.574;55.878;2023-06-10T01:05:23;100067.34;;;10.75;70.20
60089;BME280;45961;53.574;55.878;2023-06-10T01:06:48;100070.84;;;10.81;69.93
60089;BME280;45961;53.574;55.878;2023-06-10T01:10:29;57406.22;;;-144.53;100.00
60089;BME280;45961;53.574;55.878;2023-06-10T01:13:03;57406.22;;;-144.53;100.00
60089;BME280;45961;53.574;55.878;2023-06-10T01:14:04;57406.22;;;-144.53;100.00
60089;BME280;45961;53.574;55.878;2023-06-10T01:15:06;57406.22;;;-144.53;100.00
60089;BME280;45961;53.574;55.878;2023-06-10T01:16:09;57406.22;;;-144.53;100.00
60089;BME280;45961;53.574;55.878;2023-06-10T01:17:12;57406.22;;;-144.53;100.00
60089;BME280;45961;53.574;55.878;2023-06-10T01:18:17;57406.22;;;-144.53;100.00
60089;BME280;45961;53.574;55.878;2023-06-10T01:19:17;57406.22;;;-144.53;100.00
60089;BME280;45961;53.574;55.878;2023-06-10T01:20:18;57406.22;;;-144.53;100.00
60089;BME280;45961;53.574;55.878;2023-06-10T01:21:19;57406.22;;;-144.53;100.00
60089;BME280;45961;53.574;55.878;2023-06-10T01:22:24;57406.22;;;-144.53;100.00
60089;BME280;45961;53.574;55.878;2023-06-10T01:23:28;57406.22;;;-144.53;100.00
60089;BME280;45961;53.574;55.878;2023-06-10T01:24:29;57406.22;;;-144.53;100.00
60089;BME280;45961;53.574;55.878;2023-06-10T01:25:38;57406.22;;;-144.53;100.00
60089;BME280;45961;53.574;55.878;2023-06-10T01:26:40;57406.22;;;-144.53;100.00
60089;BME280;45961;53.574;55.878;2023-06-10T01:27:41;57406.22;;;-144.53;100.00
60089;BME280;45961;53.574;55.878;2023-06-10T01:28:45;57406.22;;;-144.53;100.00
60089;BME280;45961;53.574;55.878;2023-06-10T01:29:50;57406.22;;;-144.53;100.00
60089;BME280;45961;53.574;55.878;2023-06-10T01:32:01;57406.22;;;-144.53;100.00
60089;BME280;45961;53.574;55.878;2023-06-10T01:33:04;57406.22;;;-144.53;100.00
60089;BME280;45961;53.574;55.878;2023-06-10T01:34:07;57406.22;;;-144.53;100.00
60089;BME280;45961;53.574;55.878;2023-06-10T01:35:09;57406.22;;;-144.53;100.00
60089;BME280;45961;53.574;55.878;2023-06-10T01:36:12;57406.22;;;-144.53;100.00
60089;BME280;45961;53.574;55.878;2023-06-10T01:37:13;57406.22;;;-144.53;100.00
60089;BME280;45961;53.574;55.878;2023-06-10T01:38:15;57406.22;;;-144.53;100.00
60089;BME280;45961;53.574;55.878;2023-06-10T01:39:20;57406.22;;;-144.53;100.00
60089;BME280;45961;53.574;55.878;2023-06-10T01:40:21;57406.22;;;-144.53;100.00
60089;BME280;45961;53.574;55.878;2023-06-10T01:41:24;57406.22;;;-144.53;100.00
60089;BME280;45961;53.574;55.878;2023-06-10T01:42:25;57406.22;;;-144.53;100.00
60089;BME280;45961;53.574;55.878;2023-06-10T01:43:26;57406.22;;;-144.53;100.00
60089;BME280;45961;53.574;55.878;2023-06-10T01:44:27;57406.22;;;-144.53;100.00
60089;BME280;45961;53.574;55.878;2023-06-10T01:45:28;57406.22;;;-144.53;100.00
60089;BME280;45961;53.574;55.878;2023-06-10T01:46:28;57406.22;;;-144.53;100.00
60089;BME280;45961;53.574;55.878;2023-06-10T01:47:30;57406.22;;;-144.53;100.00
60089;BME280;45961;53.574;55.878;2023-06-10T01:48:31;57406.22;;;-144.53;100.00
60089;BME280;45961;53.574;55.878;2023-06-10T01:49:32;57406.22;;;-144.53;100.00
60089;BME280;45961;53.574;55.878;2023-06-10T01:50:33;57406.22;;;-144.53;100.00
60089;BME280;45961;53.574;55.878;2023-06-10T01:51:33;57406.22;;;-144.53;100.00
60089;BME280;45961;53.574;55.878;2023-06-10T01:52:35;57406.22;;;-144.53;100.00
60089;BME280;45961;53.574;55.878;2023-06-10T01:53:35;57406.22;;;-144.53;100.00
60089;BME280;45961;53.574;55.878;2023-06-10T01:54:36;57406.22;;;-144.53;100.00
60089;BME280;45961;53.574;55.878;2023-06-10T01:55:37;57406.22;;;-144.53;100.00
60089;BME280;45961;53.574;55.878;2023-06-10T01:56:38;57406.22;;;-144.53;100.00
60089;BME280;45961;53.574;55.878;2023-06-10T01:57:41;57406.22;;;-144.53;100.00
60089;BME280;45961;53.574;55.878;2023-06-10T01:58:43;57406.22;;;-144.53;100.00
60089;BME280;45961;53.574;55.878;2023-06-10T01:59:44;57406.22;;;-144.53;100.00
60089;BME280;45961;53.574;55.878;2023-06-10T02:00:45;57406.22;;;-144.53;100.00
60089;BME280;45961;53.574;55.878;2023-06-10T02:01:46;57406.22;;;-144.53;100.00
60089;BME280;45961;53.574;55.878;2023-06-10T02:02:46;57406.22;;;-144.53;100.00
60089;BME280;45961;53.574;55.878;2023-06-10T02:03:47;57406.22;;;-144.53;100.00
60089;BME280;45961;53.574;55.878;2023-06-10T02:04:48;57406.22;;;-144.53;100.00
60089;BME280;45961;53.574;55.878;2023-06-10T02:05:49;57406.22;;;-144.53;100.00
60089;BME280;45961;53.574;55.878;2023-06-10T02:06:50;57406.22;;;-144.53;100.00
60089;BME280;45961;53.574;55.878;2023-06-10T02:07:52;57406.22;;;-144.53;100.00
60089;BME280;45961;53.574;55.878;2023-06-10T02:08:52;57406.22;;;-144.53;100.00
60089;BME280;45961;53.574;55.878;2023-06-10T02:09:53;57406.22;;;-144.53;100.00
60089;BME280;45961;53.574;55.878;2023-06-10T02:10:59;57406.22;;;-144.53;100.00
60089;BME280;45961;53.574;55.878;2023-06-10T02:12:03;57406.22;;;-144.53;100.00
60089;BME280;45961;53.574;55.878;2023-06-10T02:13:04;57406.22;;;-144.53;100.00
60089;BME280;45961;53.574;55.878;2023-06-10T02:14:05;57406.22;;;-144.53;100.00
60089;BME280;45961;53.574;55.878;2023-06-10T02:15:05;57406.22;;;-144.53;100.00
60089;BME280;45961;53.574;55.878;2023-06-10T02:16:06;57406.22;;;-144.53;100.00
60089;BME280;45961;53.574;55.878;2023-06-10T02:17:07;57406.22;;;-144.53;100.00
60089;BME280;45961;53.574;55.878;2023-06-10T02:18:33;57406.22;;;-144.53;100.00
60089;BME280;45961;53.574;55.878;2023-06-10T02:19:34;57406.22;;;-144.53;100.00
60089;BME280;45961;53.574;55.878;2023-06-10T02:20:40;57406.22;;;-144.53;100.00
60089;BME280;45961;53.574;55.878;2023-06-10T02:21:40;57406.22;;;-144.53;100.00
60089;BME280;45961;53.574;55.878;2023-06-10T02:22:43;57406.22;;;-144.53;100.00
60089;BME280;45961;53.574;55.878;2023-06-10T02:23:44;57406.22;;;-144.53;100.00
60089;BME280;45961;53.574;55.878;2023-06-10T02:24:46;57406.22;;;-144.53;100.00
60089;BME280;45961;53.574;55.878;2023-06-10T02:25:46;57406.22;;;-144.53;100.00
60089;BME280;45961;53.574;55.878;2023-06-10T02:26:48;57406.22;;;-144.53;100.00
60089;BME280;45961;53.574;55.878;2023-06-10T02:27:50;57406.22;;;-144.53;100.00
60089;BME280;45961;53.574;55.878;2023-06-10T02:28:51;57406.22;;;-144.53;100.00
60089;BME280;45961;53.574;55.878;2023-06-10T02:29:52;57406.22;;;-144.53;100.00
60089;BME280;45961;53.574;55.878;2023-06-10T02:30:53;57406.22;;;-144.53;100.00
60089;BME280;45961;53.574;55.878;2023-06-10T02:31:55;57406.22;;;-144.53;100.00
60089;BME280;45961;53.574;55.878;2023-06-10T02:32:56;57406.22;;;-144.53;100.00
60089;BME280;45961;53.574;55.878;2023-06-10T02:33:59;57406.22;;;-144.53;100.00
60089;BME280;45961;53.574;55.878;2023-06-10T02:35:00;57406.22;;;-144.53;100.00
60089;BME280;45961;53.574;55.878;2023-06-10T02:36:02;57406.22;;;-144.53;100.00
60089;BME280;45961;53.574;55.878;2023-06-10T02:37:03;57406.22;;;-144.53;100.00
60089;BME280;45961;53.574;55.878;2023-06-10T02:38:05;57406.22;;;-144.53;100.00
60089;BME280;45961;53.574;55.878;2023-06-10T02:39:07;57406.22;;;-144.53;100.00
60089;BME280;45961;53.574;55.878;2023-06-10T02:40:09;57406.22;;;-144.53;100.00
60089;BME280;45961;53.574;55.878;2023-06-10T02:41:12;57406.22;;;-144.53;100.00
60089;BME280;45961;53.574;55.878;2023-06-10T02:42:12;57406.22;;;-144.53;100.00
60089;BME280;45961;53.574;55.878;2023-06-10T02:43:13;57406.22;;;-144.53;100.00
60089;BME280;45961;53.574;55.878;2023-06-10T02:44:15;57406.22;;;-144.53;100.00
60089;BME280;45961;53.574;55.878;2023-06-10T02:45:16;57406.22;;;-144.53;100.00
60089;BME280;45961;53.574;55.878;2023-06-10T02:46:18;57406.22;;;-144.53;100.00
60089;BME280;45961;53.574;55.878;2023-06-10T02:47:19;57406.22;;;-144.53;100.00
60089;BME280;45961;53.574;55.878;2023-06-10T02:48:20;57406.22;;;-144.53;100.00
60089;BME280;45961;53.574;55.878;2023-06-10T02:49:21;57406.22;;;-144.53;100.00
60089;BME280;45961;53.574;55.878;2023-06-10T02:50:22;57406.22;;;-144.53;100.00
60089;BME280;45961;53.574;55.878;2023-06-10T02:51:32;57406.22;;;-144.53;100.00
60089;BME280;45961;53.574;55.878;2023-06-10T02:52:36;57406.22;;;-144.53;100.00
60089;BME280;45961;53.574;55.878;2023-06-10T02:53:37;57406.22;;;-144.53;100.00
60089;BME280;45961;53.574;55.878;2023-06-10T02:54:42;57406.22;;;-144.53;100.00
60089;BME280;45961;53.574;55.878;2023-06-10T02:55:44;57406.22;;;-144.53;100.00
60089;BME280;45961;53.574;55.878;2023-06-10T02:56:48;57406.22;;;-144.53;100.00
60089;BME280;45961;53.574;55.878;2023-06-10T02:57:54;57406.22;;;-144.53;100.00
60089;BME280;45961;53.574;55.878;2023-06-10T02:58:55;57406.22;;;-144.53;100.00
60089;BME280;45961;53.574;55.878;2023-06-10T02:59:58;57406.22;;;-144.53;100.00
60089;BME280;45961;53.574;55.878;2023-06-10T03:01:00;57406.22;;;-144.53;100.00
60089;BME280;45961;53.574;55.878;2023-06-10T03:02:05;57406.22;;;-144.53;100.00
60089;BME280;45961;53.574;55.878;2023-06-10T03:03:12;57406.22;;;-144.53;100.00
60089;BME280;45961;53.574;55.878;2023-06-10T03:04:22;57406.22;;;-144.53;100.00
60089;BME280;45961;53.574;55.878;2023-06-10T03:05:32;57406.22;;;-144.53;100.00
60089;BME280;45961;53.574;55.878;2023-06-10T03:06:35;57406.22;;;-144.53;100.00
60089;BME280;45961;53.574;55.878;2023-06-10T03:07:56;57406.22;;;-144.53;100.00
60089;BME280;45961;53.574;55.878;2023-06-10T03:08:58;57406.22;;;-144.53;100.00
60089;BME280;45961;53.574;55.878;2023-06-10T03:09:59;57406.22;;;-144.53;100.00
60089;BME280;45961;53.574;55.878;2023-06-10T03:11:00;57406.22;;;-144.53;100.00
60089;BME280;45961;53.574;55.878;2023-06-10T03:12:02;57406.22;;;-144.53;100.00
60089;BME280;45961;53.574;55.878;2023-06-10T03:13:07;57406.22;;;-144.53;100.00
60089;BME280;45961;53.574;55.878;2023-06-10T03:14:11;57406.22;;;-144.53;100.00
60089;BME280;45961;53.574;55.878;2023-06-10T03:15:12;57406.22;;;-144.53;100.00
60089;BME280;45961;53.574;55.878;2023-06-10T03:16:13;57406.22;;;-144.53;100.00
60089;BME280;45961;53.574;55.878;2023-06-10T03:17:13;57406.22;;;-144.53;100.00
60089;BME280;45961;53.574;55.878;2023-06-10T03:18:16;57406.22;;;-144.53;100.00
60089;BME280;45961;53.574;55.878;2023-06-10T03:19:18;57406.22;;;-144.53;100.00
60089;BME280;45961;53.574;55.878;2023-06-10T03:20:24;57406.22;;;-144.53;100.00
60089;BME280;45961;53.574;55.878;2023-06-10T03:21:26;57406.22;;;-144.53;100.00
60089;BME280;45961;53.574;55.878;2023-06-10T03:22:30;57406.22;;;-144.53;100.00
60089;BME280;45961;53.574;55.878;2023-06-10T03:23:39;57406.22;;;-144.53;100.00
60089;BME280;45961;53.574;55.878;2023-06-10T03:24:40;57406.22;;;-144.53;100.00
60089;BME280;45961;53.574;55.878;2023-06-10T03:25:44;57406.22;;;-144.53;100.00
60089;BME280;45961;53.574;55.878;2023-06-10T03:26:48;57406.22;;;-144.53;100.00
60089;BME280;45961;53.574;55.878;2023-06-10T03:27:51;57406.22;;;-144.53;100.00
60089;BME280;45961;53.574;55.878;2023-06-10T03:28:53;57406.22;;;-144.53;100.00
60089;BME280;45961;53.574;55.878;2023-06-10T03:29:55;57406.22;;;-144.53;100.00
60089;BME280;45961;53.574;55.878;2023-06-10T03:30:56;57406.22;;;-144.53;100.00
60089;BME280;45961;53.574;55.878;2023-06-10T03:31:59;57406.22;;;-144.53;100.00
60089;BME280;45961;53.574;55.878;2023-06-10T03:33:01;57406.22;;;-144.53;100.00
60089;BME280;45961;53.574;55.878;2023-06-10T03:34:03;57406.22;;;-144.53;100.00
60089;BME280;45961;53.574;55.878;2023-06-10T03:35:04;57406.22;;;-144.53;100.00
60089;BME280;45961;53.574;55.878;2023-06-10T03:36:06;57406.22;;;-144.53;100.00
60089;BME280;45961;53.574;55.878;2023-06-10T03:37:08;57406.22;;;-144.53;100.00
60089;BME280;45961;53.574;55.878;2023-06-10T03:38:09;57406.22;;;-144.53;100.00
60089;BME280;45961;53.574;55.878;2023-06-10T03:39:12;57406.22;;;-144.53;100.00
60089;BME280;45961;53.574;55.878;2023-06-10T03:40:14;57406.22;;;-144.53;100.00
60089;BME280;45961;53.574;55.878;2023-06-10T03:41:17;57406.22;;;-144.53;100.00
60089;BME280;45961;53.574;55.878;2023-06-10T03:42:19;57406.22;;;-144.53;100.00
60089;BME280;45961;53.574;55.878;2023-06-10T03:43:20;57406.22;;;-144.53;100.00
60089;BME280;45961;53.574;55.878;2023-06-10T03:44:24;57406.22;;;-144.53;100.00
60089;BME280;45961;53.574;55.878;2023-06-10T03:45:26;57406.22;;;-144.53;100.00
60089;BME280;45961;53.574;55.878;2023-06-10T03:46:29;57406.22;;;-144.53;100.00
60089;BME280;45961;53.574;55.878;2023-06-10T03:47:33;57406.22;;;-144.53;100.00
60089;BME280;45961;53.574;55.878;2023-06-10T03:48:39;57406.22;;;-144.53;100.00
60089;BME280;45961;53.574;55.878;2023-06-10T03:49:40;57406.22;;;-144.53;100.00
60089;BME280;45961;53.574;55.878;2023-06-10T03:50:43;57406.22;;;-144.53;100.00
60089;BME280;45961;53.574;55.878;2023-06-10T03:51:43;57406.22;;;-144.53;100.00
60089;BME280;45961;53.574;55.878;2023-06-10T03:52:45;57406.22;;;-144.53;100.00
60089;BME280;45961;53.574;55.878;2023-06-10T03:53:47;57406.22;;;-144.53;100.00
60089;BME280;45961;53.574;55.878;2023-06-10T03:54:47;57406.22;;;-144.53;100.00
60089;BME280;45961;53.574;55.878;2023-06-10T03:55:48;57406.22;;;-144.53;100.00
60089;BME280;45961;53.574;55.878;2023-06-10T03:56:51;57406.22;;;-144.53;100.00
60089;BME280;45961;53.574;55.878;2023-06-10T03:57:52;57406.22;;;-144.53;100.00
60089;BME280;45961;53.574;55.878;2023-06-10T03:58:53;57406.22;;;-144.53;100.00
60089;BME280;45961;53.574;55.878;2023-06-10T03:59:54;57406.22;;;-144.53;100.00
60089;BME280;45961;53.574;55.878;2023-06-10T04:00:57;57406.22;;;-144.53;100.00
60089;BME280;45961;53.574;55.878;2023-06-10T04:02:06;57406.22;;;-144.53;100.00
60089;BME280;45961;53.574;55.878;2023-06-10T04:03:08;57406.22;;;-144.53;100.00
60089;BME280;45961;53.574;55.878;2023-06-10T04:04:19;57406.22;;;-144.53;100.00
60089;BME280;45961;53.574;55.878;2023-06-10T04:05:21;57406.22;;;-144.53;100.00
60089;BME280;45961;53.574;55.878;2023-06-10T04:06:22;57406.22;;;-144.53;100.00
60089;BME280;45961;53.574;55.878;2023-06-10T04:07:23;57406.22;;;-144.53;100.00
60089;BME280;45961;53.574;55.878;2023-06-10T04:08:24;57406.22;;;-144.53;100.00
60089;BME280;45961;53.574;55.878;2023-06-10T04:09:25;57406.22;;;-144.53;100.00
60089;BME280;45961;53.574;55.878;2023-06-10T04:10:26;57406.22;;;-144.53;100.00
60089;BME280;45961;53.574;55.878;2023-06-10T04:11:27;57406.22;;;-144.53;100.00
60089;BME280;45961;53.574;55.878;2023-06-10T04:12:29;57406.22;;;-144.53;100.00
60089;BME280;45961;53.574;55.878;2023-06-10T04:13:30;57406.22;;;-144.53;100.00
60089;BME280;45961;53.574;55.878;2023-06-10T04:14:33;57406.22;;;-144.53;100.00
60089;BME280;45961;53.574;55.878;2023-06-10T04:15:36;57406.22;;;-144.53;100.00
60089;BME280;45961;53.574;55.878;2023-06-10T04:16:41;57406.22;;;-144.53;100.00
60089;BME280;45961;53.574;55.878;2023-06-10T04:17:43;57406.22;;;-144.53;100.00
60089;BME280;45961;53.574;55.878;2023-06-10T04:18:44;57406.22;;;-144.53;100.00
60089;BME280;45961;53.574;55.878;2023-06-10T04:19:46;57406.22;;;-144.53;100.00
60089;BME280;45961;53.574;55.878;2023-06-10T04:20:47;57406.22;;;-144.53;100.00
60089;BME280;45961;53.574;55.878;2023-06-10T04:21:48;57406.22;;;-144.53;100.00
60089;BME280;45961;53.574;55.878;2023-06-10T04:22:49;57406.22;;;-144.53;100.00
60089;BME280;45961;53.574;55.878;2023-06-10T04:23:50;57406.22;;;-144.53;100.00
60089;BME280;45961;53.574;55.878;2023-06-10T04:24:52;57406.22;;;-144.53;100.00
60089;BME280;45961;53.574;55.878;2023-06-10T04:25:53;57406.22;;;-144.53;100.00
60089;BME280;45961;53.574;55.878;2023-06-10T04:26:54;57406.22;;;-144.53;100.00
60089;BME280;45961;53.574;55.878;2023-06-10T04:27:55;57406.22;;;-144.53;100.00
60089;BME280;45961;53.574;55.878;2023-06-10T04:28:56;57406.22;;;-144.53;100.00
60089;BME280;45961;53.574;55.878;2023-06-10T04:29:57;57406.22;;;-144.53;100.00
60089;BME280;45961;53.574;55.878;2023-06-10T04:30:58;57406.22;;;-144.53;100.00
60089;BME280;45961;53.574;55.878;2023-06-10T04:31:59;57406.22;;;-144.53;100.00
60089;BME280;45961;53.574;55.878;2023-06-10T04:33:04;57406.22;;;-144.53;100.00
60089;BME280;45961;53.574;55.878;2023-06-10T04:34:07;57406.22;;;-144.53;100.00
60089;BME280;45961;53.574;55.878;2023-06-10T04:35:11;57406.22;;;-144.53;100.00
60089;BME280;45961;53.574;55.878;2023-06-10T04:36:12;57406.22;;;-144.53;100.00
60089;BME280;45961;53.574;55.878;2023-06-10T04:37:12;57406.22;;;-144.53;100.00
60089;BME280;45961;53.574;55.878;2023-06-10T04:38:14;57406.22;;;-144.53;100.00
60089;BME280;45961;53.574;55.878;2023-06-10T04:39:15;57406.22;;;-144.53;100.00
60089;BME280;45961;53.574;55.878;2023-06-10T04:40:17;57406.22;;;-144.53;100.00
60089;BME280;45961;53.574;55.878;2023-06-10T04:41:21;57406.22;;;-144.53;100.00
60089;BME280;45961;53.574;55.878;2023-06-10T04:42:23;57406.22;;;-144.53;100.00
60089;BME280;45961;53.574;55.878;2023-06-10T04:43:24;57406.22;;;-144.53;100.00
60089;BME280;45961;53.574;55.878;2023-06-10T04:44:25;57406.22;;;-144.53;100.00
60089;BME280;45961;53.574;55.878;2023-06-10T04:45:27;57406.22;;;-144.53;100.00
60089;BME280;45961;53.574;55.878;2023-06-10T04:46:31;57406.22;;;-144.53;100.00
60089;BME280;45961;53.574;55.878;2023-06-10T04:47:32;57406.22;;;-144.53;100.00
60089;BME280;45961;53.574;55.878;2023-06-10T04:48:36;57406.22;;;-144.53;100.00
60089;BME280;45961;53.574;55.878;2023-06-10T04:49:38;57406.22;;;-144.53;100.00
60089;BME280;45961;53.574;55.878;2023-06-10T04:50:39;57406.22;;;-144.53;100.00
60089;BME280;45961;53.574;55.878;2023-06-10T04:51:40;57406.22;;;-144.53;100.00
60089;BME280;45961;53.574;55.878;2023-06-10T04:52:42;57406.22;;;-144.53;100.00
60089;BME280;45961;53.574;55.878;2023-06-10T04:53:43;57406.22;;;-144.53;100.00
60089;BME280;45961;53.574;55.878;2023-06-10T04:54:45;57406.22;;;-144.53;100.00
60089;BME280;45961;53.574;55.878;2023-06-10T04:55:47;57406.22;;;-144.53;100.00
60089;BME280;45961;53.574;55.878;2023-06-10T04:56:48;57406.22;;;-144.53;100.00
60089;BME280;45961;53.574;55.878;2023-06-10T04:57:49;57406.22;;;-144.53;100.00
60089;BME280;45961;53.574;55.878;2023-06-10T04:58:51;57406.22;;;-144.53;100.00
60089;BME280;45961;53.574;55.878;2023-06-10T04:59:52;57406.22;;;-144.53;100.00
60089;BME280;45961;53.574;55.878;2023-06-10T05:00:53;57406.22;;;-144.53;100.00
60089;BME280;45961;53.574;55.878;2023-06-10T05:01:53;57406.22;;;-144.53;100.00
60089;BME280;45961;53.574;55.878;2023-06-10T05:02:55;57406.22;;;-144.53;100.00
60089;BME280;45961;53.574;55.878;2023-06-10T05:03:56;57406.22;;;-144.53;100.00
60089;BME280;45961;53.574;55.878;2023-06-10T05:04:57;57406.22;;;-144.53;100.00
60089;BME280;45961;53.574;55.878;2023-06-10T05:05:58;57406.22;;;-144.53;100.00
60089;BME280;45961;53.574;55.878;2023-06-10T05:06:59;57406.22;;;-144.53;100.00
60089;BME280;45961;53.574;55.878;2023-06-10T05:08:03;57406.22;;;-144.53;100.00
60089;BME280;45961;53.574;55.878;2023-06-10T05:09:03;57406.22;;;-144.53;100.00
60089;BME280;45961;53.574;55.878;2023-06-10T05:10:04;57406.22;;;-144.53;100.00
60089;BME280;45961;53.574;55.878;2023-06-10T05:11:05;57406.22;;;-144.53;100.00
60089;BME280;45961;53.574;55.878;2023-06-10T05:12:06;57406.22;;;-144.53;100.00
60089;BME280;45961;53.574;55.878;2023-06-10T05:13:10;57406.22;;;-144.53;100.00
60089;BME280;45961;53.574;55.878;2023-06-10T05:14:11;57406.22;;;-144.53;100.00
60089;BME280;45961;53.574;55.878;2023-06-10T05:15:12;57406.22;;;-144.53;100.00
60089;BME280;45961;53.574;55.878;2023-06-10T05:16:13;57406.22;;;-144.53;100.00
60089;BME280;45961;53.574;55.878;2023-06-10T05:17:15;57406.22;;;-144.53;100.00
60089;BME280;45961;53.574;55.878;2023-06-10T05:18:16;57406.22;;;-144.53;100.00
60089;BME280;45961;53.574;55.878;2023-06-10T05:19:17;57406.22;;;-144.53;100.00
60089;BME280;45961;53.574;55.878;2023-06-10T05:20:18;57406.22;;;-144.53;100.00